Time;durP1;ratioP1;P1;durP2;ratioP2;P2;SDS_P1;SDS_P2;PMS_P1;PMS_P2;Temp;Humidity;BMP_temperature;BMP_pressure;BME280_temperature;BME280_humidity;BME280_pressure;Samples;Min_cycle;Max_cycle;Signal;HPM_P1;HPM_P2
2024/01/06 00:01:15;;;;;;;;;;;;;;;11.25;62.53;96976.66;4349393;33;20042;-82
2024/01/06 00:03:42;;;;;;;;;;;;;;;10.85;63.10;96973.16;4348034;33;19991;-82
2024/01/06 00:06:11;;;;;;;;;;;;;;;9.50;69.85;96974.13;4349184;33;19985;-82
2024/01/06 00:08:38;;;;;;;;;;;;;;;10.93;63.84;96975.25;4348154;33;19974;-82
2024/01/06 00:11:04;;;;;;;;;;;;;;;11.09;63.47;96969.97;4348823;33;20544;-82
2024/01/06 00:13:31;;;;;;;;;;;;;;;10.61;64.71;96967.69;4349175;32;19999;-82
2024/01/06 00:15:58;;;;;;;;;;;;;;;11.32;62.06;96965.97;4350923;33;20314;-82
2024/01/06 00:18:25;;;;;;;;;;;;;;;11.81;59.97;96969.69;4351049;33;19979;-82
2024/01/06 00:20:52;;;;;;;;;;;;;;;11.54;60.82;96968.84;4351375;32;20350;-82
2024/01/06 00:23:19;;;;;;;;;;;;;;;11.34;61.88;96971.84;4351385;33;20315;-82
2024/01/06 00:25:45;;;;;;;;;;;;;;;11.90;60.00;96975.19;4350616;33;20294;-82
2024/01/06 00:28:12;;;;;;;;;;;;;;;11.52;60.16;96973.28;4351161;33;20457;-82
2024/01/06 00:30:38;;;;;;;;;;;;;;;11.34;61.17;96974.44;4351325;33;19994;-82
2024/01/06 00:33:05;;;;;;;;;;;;;;;11.33;61.71;96973.59;4351008;33;19993;-82
2024/01/06 00:35:32;;;;;;;;;;;;;;;11.42;61.13;96980.78;4351007;32;19979;-82
2024/01/06 00:38:00;;;;;;;;;;;;;;;11.70;59.73;96977.28;4351078;33;20351;-82
2024/01/06 00:40:27;;;;;;;;;;;;;;;11.80;59.51;96985.28;4350913;33;19979;-82
2024/01/06 00:42:54;;;;;;;;;;;;;;;11.91;59.17;96985.44;4351191;33;19995;-82
2024/01/06 00:45:22;;;;;;;;;;;;;;;11.50;60.53;96975.97;4350707;33;20042;-81
2024/01/06 00:47:49;;;;;;;;;;;;;;;12.03;59.11;96974.31;4351130;33;19985;-82
2024/01/06 00:50:18;;;;;;;;;;;;;;;11.04;62.38;96979.75;4351179;33;20009;-82
2024/01/06 00:52:45;;;;;;;;;;;;;;;11.60;61.45;96971.06;4350869;33;19994;-82
2024/01/06 00:55:12;;;;;;;;;;;;;;;11.62;61.45;96976.94;4350925;33;19975;-81
2024/01/06 00:57:38;;;;;;;;;;;;;;;10.49;65.65;96972.75;4351031;33;20365;-82
2024/01/06 01:00:05;;;;;;;;;;;;;;;10.82;64.78;96967.31;4350597;33;19993;-82
2024/01/06 01:02:32;;;;;;;;;;;;;;;11.44;62.11;96975.50;4349974;33;19991;-82
2024/01/06 01:04:59;;;;;;;;;;;;;;;11.55;61.92;96983.41;4351021;32;19971;-82
2024/01/06 01:07:27;;;;;;;;;;;;;;;11.90;60.58;96985.50;4350713;33;19967;-82
2024/01/06 01:09:54;;;;;;;;;;;;;;;12.00;60.17;96978.81;4351063;33;19979;-82
2024/01/06 01:12:20;;;;;;;;;;;;;;;11.39;62.73;96986.16;4351061;33;20010;-82
2024/01/06 01:14:47;;;;;;;;;;;;;;;11.77;61.19;96981.13;4350566;33;19971;-82
2024/01/06 01:17:14;;;;;;;;;;;;;;;11.98;60.08;96976.34;4350716;33;20378;-82
2024/01/06 01:19:40;;;;;;;;;;;;;;;11.68;61.16;96978.28;4351053;33;20013;-82
2024/01/06 01:22:07;;;;;;;;;;;;;;;11.17;63.18;96981.50;4350555;33;19998;-82
2024/01/06 01:24:34;;;;;;;;;;;;;;;11.47;61.71;96975.31;4350764;33;19989;-82
2024/01/06 01:27:01;;;;;;;;;;;;;;;11.86;60.18;96977.16;4350336;33;20021;-82
2024/01/06 01:29:27;;;;;;;;;;;;;;;11.44;61.84;96971.19;4350515;33;19974;-82
2024/01/06 01:31:54;;;;;;;;;;;;;;;11.29;62.94;96961.81;4350929;33;19997;-82
2024/01/06 01:34:21;;;;;;;;;;;;;;;11.93;60.75;96951.75;4350732;32;20345;-82
2024/01/06 01:36:48;;;;;;;;;;;;;;;11.32;62.93;96956.47;4350586;33;20235;-82
2024/01/06 01:39:15;;;;;;;;;;;;;;;11.59;61.98;96964.22;4350795;33;20120;-82
2024/01/06 01:41:42;;;;;;;;;;;;;;;10.80;64.51;96953.69;4350512;33;19991;-82
2024/01/06 01:44:09;;;;;;;;;;;;;;;11.72;61.61;96949.59;4350810;33;20344;-82
2024/01/06 01:46:35;;;;;;;;;;;;;;;11.15;63.48;96944.59;4350668;33;19994;-82
2024/01/06 01:49:03;;;;;;;;;;;;;;;10.19;66.13;96945.25;4350351;33;19997;-82
2024/01/06 01:51:31;;;;;;;;;;;;;;;9.87;68.01;96936.81;4350831;33;20369;-81
2024/01/06 01:53:58;;;;;;;;;;;;;;;9.73;70.26;96941.94;4349528;33;19982;-82
2024/01/06 01:56:24;;;;;;;;;;;;;;;9.73;69.86;96929.03;4350223;33;20228;-81
2024/01/06 01:58:51;;;;;;;;;;;;;;;9.60;70.63;96935.81;4350809;33;19979;-82
2024/01/06 02:01:18;;;;;;;;;;;;;;;9.97;68.57;96919.91;4349577;33;20001;-81
2024/01/06 02:03:45;;;;;;;;;;;;;;;9.44;71.22;96913.50;4350341;33;19971;-81
2024/01/06 02:06:12;;;;;;;;;;;;;;;9.24;72.92;96908.63;4350499;32;19963;-82
2024/01/06 02:08:38;;;;;;;;;;;;;;;9.21;72.11;96894.19;4350609;33;19998;-81
2024/01/06 02:11:05;;;;;;;;;;;;;;;9.13;73.41;96896.34;4350280;33;20287;-82
2024/01/06 02:13:35;;;;;;;;;;;;;;;8.38;77.11;96897.81;4350630;33;19971;-82
2024/01/06 02:16:02;;;;;;;;;;;;;;;9.53;72.67;96915.56;4350316;33;20085;-82
2024/01/06 02:18:29;;;;;;;;;;;;;;;9.08;73.31;96900.94;4350264;33;20315;-82
2024/01/06 02:20:57;;;;;;;;;;;;;;;9.21;73.53;96901.91;4350617;33;19983;-82
2024/01/06 02:23:24;;;;;;;;;;;;;;;10.17;70.05;96903.28;4350544;33;20531;-82
2024/01/06 02:25:50;;;;;;;;;;;;;;;10.19;69.79;96893.69;4349915;33;19981;-82
2024/01/06 02:28:17;;;;;;;;;;;;;;;10.13;69.31;96894.06;4350341;33;20042;-82
2024/01/06 02:30:44;;;;;;;;;;;;;;;9.67;71.16;96899.31;4350276;33;20048;-82
2024/01/06 02:33:10;;;;;;;;;;;;;;;9.75;71.60;96899.69;4350474;33;20029;-82
2024/01/06 02:35:37;;;;;;;;;;;;;;;9.84;70.11;96893.19;4350113;33;19982;-81
2024/01/06 02:38:04;;;;;;;;;;;;;;;10.36;69.58;96892.72;4349154;33;19974;-81
2024/01/06 02:40:31;;;;;;;;;;;;;;;11.07;65.48;96884.91;4350412;33;19974;-82
2024/01/06 02:42:58;;;;;;;;;;;;;;;11.32;64.33;96883.31;4350349;33;20330;-81
2024/01/06 02:45:25;;;;;;;;;;;;;;;11.54;63.45;96881.84;4349823;33;20018;-81
2024/01/06 02:47:52;;;;;;;;;;;;;;;12.12;61.29;96884.94;4350331;33;20479;-82
2024/01/06 02:50:18;;;;;;;;;;;;;;;12.09;61.14;96885.97;4350311;33;19983;-82
2024/01/06 02:52:45;;;;;;;;;;;;;;;12.13;60.55;96879.69;4349926;33;20378;-82
2024/01/06 02:55:12;;;;;;;;;;;;;;;12.03;60.88;96876.06;4350227;33;20045;-82
2024/01/06 02:57:38;;;;;;;;;;;;;;;12.25;60.47;96870.25;4350271;33;19975;-82
2024/01/06 03:00:06;;;;;;;;;;;;;;;12.11;60.65;96870.34;4349919;33;20030;-82
2024/01/06 03:02:33;;;;;;;;;;;;;;;12.35;59.60;96866.13;4350075;33;19990;-82
2024/01/06 03:04:59;;;;;;;;;;;;;;;11.64;62.01;96868.31;4350092;33;19991;-82
2024/01/06 03:07:26;;;;;;;;;;;;;;;11.48;62.53;96868.47;4349880;33;20360;-82
2024/01/06 03:09:53;;;;;;;;;;;;;;;11.80;61.61;96875.00;4350182;32;20002;-82
2024/01/06 03:12:20;;;;;;;;;;;;;;;12.19;60.31;96870.66;4350148;33;20335;-82
2024/01/06 03:14:47;;;;;;;;;;;;;;;12.19;60.35;96869.84;4349708;33;19985;-82
2024/01/06 03:17:14;;;;;;;;;;;;;;;12.18;60.41;96871.59;4349662;33;19994;-82
2024/01/06 03:19:40;;;;;;;;;;;;;;;12.41;59.58;96867.44;4349785;32;20005;-82
2024/01/06 03:22:07;;;;;;;;;;;;;;;12.85;58.14;96869.53;4349988;33;19971;-82
2024/01/06 03:24:34;;;;;;;;;;;;;;;12.51;58.49;96865.06;4349887;33;20039;-82
2024/01/06 03:27:00;;;;;;;;;;;;;;;12.53;58.50;96858.00;4349078;33;19975;-82
2024/01/06 03:29:27;;;;;;;;;;;;;;;12.96;57.46;96869.59;4350001;33;20392;-82
2024/01/06 03:31:54;;;;;;;;;;;;;;;12.70;58.19;96868.84;4349746;33;19970;-82
2024/01/06 03:34:21;;;;;;;;;;;;;;;11.87;61.46;96867.66;4349439;33;19979;-82
2024/01/06 03:36:48;;;;;;;;;;;;;;;11.63;62.15;96864.09;4349511;33;19993;-82
2024/01/06 03:39:14;;;;;;;;;;;;;;;12.15;60.71;96869.22;4349857;33;20002;-82
2024/01/06 03:41:41;;;;;;;;;;;;;;;12.17;61.20;96869.94;4349459;33;19975;-82
2024/01/06 03:44:08;;;;;;;;;;;;;;;11.89;62.15;96863.22;4349734;33;19982;-82
2024/01/06 03:46:35;;;;;;;;;;;;;;;11.14;65.32;96867.25;4349314;33;20315;-81
2024/01/06 03:49:01;;;;;;;;;;;;;;;11.33;65.01;96865.16;4350204;33;19998;-82
2024/01/06 03:51:28;;;;;;;;;;;;;;;10.41;67.89;96865.72;4350322;33;20032;-82
2024/01/06 03:53:55;;;;;;;;;;;;;;;10.78;66.31;96863.47;4351596;33;20342;-81
2024/01/06 03:56:22;;;;;;;;;;;;;;;10.26;70.72;96860.69;4350901;33;20301;-81
2024/01/06 03:58:49;;;;;;;;;;;;;;;10.87;68.24;96859.50;4351476;33;20051;-81
2024/01/06 04:01:15;;;;;;;;;;;;;;;10.67;68.87;96866.72;4351539;32;19975;-81
2024/01/06 04:03:42;;;;;;;;;;;;;;;11.00;67.37;96866.38;4351048;33;19980;-81
2024/01/06 04:06:10;;;;;;;;;;;;;;;9.72;72.89;96857.84;4351233;33;20598;-81
2024/01/06 04:08:36;;;;;;;;;;;;;;;11.07;67.22;96866.81;4350433;33;19990;-82
2024/01/06 04:11:03;;;;;;;;;;;;;;;10.12;70.42;96857.16;4351108;33;20324;-82
2024/01/06 04:13:30;;;;;;;;;;;;;;;10.59;69.23;96874.09;4351444;33;20349;-81
2024/01/06 04:15:57;;;;;;;;;;;;;;;10.92;68.08;96871.19;4350716;33;19975;-81
2024/01/06 04:18:23;;;;;;;;;;;;;;;11.13;66.96;96863.84;4351390;33;20003;-81
2024/01/06 04:20:50;;;;;;;;;;;;;;;10.59;69.58;96873.28;4351399;32;19975;-81
2024/01/06 04:23:17;;;;;;;;;;;;;;;11.23;67.22;96871.81;4349895;33;20323;-81
2024/01/06 04:25:43;;;;;;;;;;;;;;;10.71;69.45;96878.50;4351002;32;20326;-81
2024/01/06 04:28:10;;;;;;;;;;;;;;;10.71;69.02;96869.94;4351233;33;19997;-81
2024/01/06 04:30:37;;;;;;;;;;;;;;;10.69;69.87;96874.38;4350935;32;20390;-81
2024/01/06 04:33:04;;;;;;;;;;;;;;;10.97;68.12;96878.66;4351216;33;20361;-81
2024/01/06 04:35:30;;;;;;;;;;;;;;;10.17;71.43;96864.59;4350952;33;19990;-81
2024/01/06 04:37:57;;;;;;;;;;;;;;;9.80;73.73;96866.78;4350994;33;19982;-81
2024/01/06 04:40:24;;;;;;;;;;;;;;;9.51;74.30;96855.59;4351254;33;20123;-81
2024/01/06 04:42:50;;;;;;;;;;;;;;;10.54;70.46;96863.25;4351196;33;20314;-81
2024/01/06 04:45:19;;;;;;;;;;;;;;;10.06;71.95;96861.84;4350656;33;20002;-81
2024/01/06 04:47:46;;;;;;;;;;;;;;;9.40;75.87;96851.97;4351276;33;20319;-81
2024/01/06 04:50:12;;;;;;;;;;;;;;;8.76;79.63;96848.66;4351346;32;19970;-81
2024/01/06 04:52:39;;;;;;;;;;;;;;;10.05;75.04;96867.91;4350777;32;19984;-81
2024/01/06 04:55:06;;;;;;;;;;;;;;;9.17;78.23;96851.53;4350840;33;20428;-81
2024/01/06 04:57:33;;;;;;;;;;;;;;;9.24;78.18;96863.13;4351075;33;20079;-81
2024/01/06 04:59:59;;;;;;;;;;;;;;;9.14;78.24;96843.13;4350233;32;19978;-81
2024/01/06 05:02:26;;;;;;;;;;;;;;;8.39;81.96;96854.94;4351008;33;19967;-81
2024/01/06 05:04:53;;;;;;;;;;;;;;;9.31;77.47;96848.16;4350779;33;19979;-81
2024/01/06 05:07:20;;;;;;;;;;;;;;;8.73;81.78;96824.88;4349694;33;19982;-81
2024/01/06 05:09:46;;;;;;;;;;;;;;;8.58;81.13;96827.34;4351037;33;19979;-81
2024/01/06 05:12:13;;;;;;;;;;;;;;;8.02;85.90;96823.44;4350762;33;20046;-81
2024/01/06 05:14:40;;;;;;;;;;;;;;;7.66;89.21;96820.19;4350955;33;20027;-81
2024/01/06 05:17:06;;;;;;;;;;;;;;;7.91;88.08;96820.59;4350789;33;20322;-81
2024/01/06 05:19:33;;;;;;;;;;;;;;;7.64;91.26;96820.25;4350726;33;20001;-81
2024/01/06 05:22:00;;;;;;;;;;;;;;;8.07;89.27;96831.72;4351061;32;19985;-81
2024/01/06 05:24:27;;;;;;;;;;;;;;;8.57;86.03;96842.84;4349762;33;20353;-81
2024/01/06 05:26:53;;;;;;;;;;;;;;;9.11;83.98;96839.00;4350254;33;19982;-81
2024/01/06 05:29:20;;;;;;;;;;;;;;;10.38;77.38;96839.31;4350911;33;19975;-81
2024/01/06 05:31:48;;;;;;;;;;;;;;;10.46;76.89;96844.00;4350876;33;20318;-81
2024/01/06 05:34:15;;;;;;;;;;;;;;;10.45;76.17;96847.50;4350490;33;19990;-81
2024/01/06 05:36:42;;;;;;;;;;;;;;;11.19;72.88;96857.47;4350585;32;20039;-81
2024/01/06 05:39:09;;;;;;;;;;;;;;;11.11;73.14;96842.47;4350968;33;19970;-81
2024/01/06 05:41:39;;;;;;;;;;;;;;;11.09;72.68;96851.25;4350403;33;20005;-81
2024/01/06 05:44:05;;;;;;;;;;;;;;;11.11;71.74;96852.78;4350814;33;19994;-81
2024/01/06 05:46:33;;;;;;;;;;;;;;;11.56;70.59;96845.56;4350555;33;20239;-81
2024/01/06 05:49:00;;;;;;;;;;;;;;;10.13;74.82;96842.53;4350482;33;20021;-81
2024/01/06 05:51:26;;;;;;;;;;;;;;;10.42;74.90;96856.28;4350825;33;20311;-81
2024/01/06 05:53:54;;;;;;;;;;;;;;;10.32;74.09;96857.75;4350701;33;20022;-81
2024/01/06 05:56:27;;;;;;;;;;;;;;;10.67;72.53;96853.84;4350097;33;20379;-81
2024/01/06 05:58:54;;;;;;;;;;;;;;;10.61;73.56;96850.78;4350802;33;20318;-81
2024/01/06 06:01:20;;;;;;;;;;;;;;;10.55;73.33;96853.78;4350400;33;20487;-81
2024/01/06 06:03:50;;;;;;;;;;;;;;;10.84;72.67;96855.34;4350716;33;20034;-81
2024/01/06 06:06:17;;;;;;;;;;;;;;;9.04;80.03;96844.56;4350479;33;19997;-81
2024/01/06 06:08:44;;;;;;;;;;;;;;;8.91;83.04;96845.25;4350463;33;20030;-81
2024/01/06 06:11:11;;;;;;;;;;;;;;;9.43;79.87;96847.47;4350163;33;19985;-81
2024/01/06 06:13:39;;;;;;;;;;;;;;;8.67;82.87;96842.28;4349912;33;19974;-81
2024/01/06 06:16:05;;;;;;;;;;;;;;;8.79;83.02;96837.37;4350146;33;19993;-81
2024/01/06 06:18:32;;;;;;;;;;;;;;;8.30;86.74;96835.69;4350517;33;19971;-81
2024/01/06 06:20:59;;;;;;;;;;;;;;;8.85;84.29;96834.47;4350553;33;19967;-81
2024/01/06 06:23:27;;;;;;;;;;;;;;;8.94;83.74;96836.56;4350186;33;20042;-81
2024/01/06 06:25:54;;;;;;;;;;;;;;;8.50;85.62;96831.22;4350207;33;19982;-81
2024/01/06 06:28:20;;;;;;;;;;;;;;;8.62;85.43;96834.00;4334197;33;539071;-81
2024/01/06 06:30:47;;;;;;;;;;;;;;;8.98;83.64;96835.44;4350164;33;19966;-81
2024/01/06 06:33:14;;;;;;;;;;;;;;;9.71;79.96;96827.84;4350499;33;20042;-81
2024/01/06 06:35:41;;;;;;;;;;;;;;;10.20;77.55;96835.22;4350171;33;20018;-81
2024/01/06 06:38:08;;;;;;;;;;;;;;;10.69;75.30;96841.66;4350147;33;19966;-81
2024/01/06 06:40:34;;;;;;;;;;;;;;;10.83;73.80;96839.97;4350582;33;20282;-81
2024/01/06 06:43:01;;;;;;;;;;;;;;;11.86;68.53;96840.16;4350346;33;19975;-81
2024/01/06 06:45:28;;;;;;;;;;;;;;;11.97;67.67;96848.03;4349957;33;19986;-80
2024/01/06 06:47:55;;;;;;;;;;;;;;;11.70;68.67;96849.84;4350451;33;19989;-81
2024/01/06 06:50:21;;;;;;;;;;;;;;;11.72;69.31;96837.66;4350099;32;19987;-81
2024/01/06 06:52:48;;;;;;;;;;;;;;;10.76;71.92;96849.03;4350325;33;19980;-81
2024/01/06 06:55:15;;;;;;;;;;;;;;;10.64;72.44;96841.12;4350036;33;20046;-80
2024/01/06 06:57:41;;;;;;;;;;;;;;;10.37;73.83;96841.06;4349978;33;19975;-81
2024/01/06 07:00:08;;;;;;;;;;;;;;;10.89;72.40;96839.59;4350276;33;19963;-81
2024/01/06 07:02:35;;;;;;;;;;;;;;;10.75;72.54;96837.06;4349098;33;20467;-81
2024/01/06 07:05:02;;;;;;;;;;;;;;;10.53;74.68;96832.41;4349761;33;20038;-81
2024/01/06 07:07:29;;;;;;;;;;;;;;;9.57;77.67;96839.81;4350129;33;19985;-81
2024/01/06 07:09:55;;;;;;;;;;;;;;;10.50;75.52;96843.72;4350049;33;20022;-81
2024/01/06 07:12:22;;;;;;;;;;;;;;;10.24;75.79;96845.31;4349776;33;20266;-81
2024/01/06 07:14:49;;;;;;;;;;;;;;;9.69;78.69;96840.00;4350149;33;19979;-81
2024/01/06 07:17:16;;;;;;;;;;;;;;;9.53;78.48;96842.62;4349646;33;19967;-81
2024/01/06 07:19:42;;;;;;;;;;;;;;;9.63;77.56;96843.75;4349811;32;19989;-81
2024/01/06 07:22:10;;;;;;;;;;;;;;;8.40;85.57;96838.63;4350013;33;19974;-80
2024/01/06 07:24:36;;;;;;;;;;;;;;;9.86;79.62;96839.81;4349293;33;20334;-80
2024/01/06 07:27:04;;;;;;;;;;;;;;;9.17;83.79;96845.56;4349289;33;19982;-80
2024/01/06 07:29:30;;;;;;;;;;;;;;;9.37;81.88;96849.59;4349948;33;19971;-80
2024/01/06 07:31:57;;;;;;;;;;;;;;;9.25;83.47;96846.78;4349828;33;20031;-81
2024/01/06 07:34:25;;;;;;;;;;;;;;;9.26;84.00;96845.03;4349469;33;20046;-80
2024/01/06 07:36:52;;;;;;;;;;;;;;;9.57;81.44;96839.81;4349481;33;20045;-80
2024/01/06 07:39:18;;;;;;;;;;;;;;;10.27;78.24;96850.28;4349579;33;19985;-81
2024/01/06 07:41:46;;;;;;;;;;;;;;;10.18;77.58;96840.47;4349760;32;20540;-81
2024/01/06 07:44:13;;;;;;;;;;;;;;;10.93;74.53;96848.78;4349737;33;20017;-81
2024/01/06 07:46:40;;;;;;;;;;;;;;;10.02;78.93;96850.06;4349057;33;19985;-80
2024/01/06 07:49:07;;;;;;;;;;;;;;;9.50;82.04;96851.38;4349701;33;20043;-80
2024/01/06 07:51:34;;;;;;;;;;;;;;;9.45;82.31;96849.94;4349664;33;19979;-81
2024/01/06 07:54:02;;;;;;;;;;;;;;;9.54;82.70;96855.41;4349251;33;20331;-81
2024/01/06 07:56:28;;;;;;;;;;;;;;;9.71;81.21;96851.03;4349094;33;19986;-81
2024/01/06 07:58:55;;;;;;;;;;;;;;;10.59;77.71;96857.81;4349562;33;19980;-81
2024/01/06 08:01:22;;;;;;;;;;;;;;;10.26;77.45;96856.34;4349094;33;19995;-81
2024/01/06 08:03:49;;;;;;;;;;;;;;;10.36;78.15;96851.47;4349452;33;19983;-81
2024/01/06 08:06:15;;;;;;;;;;;;;;;10.28;78.67;96864.81;4349111;33;20026;-80
2024/01/06 08:08:42;;;;;;;;;;;;;;;9.98;80.67;96849.41;4347918;33;19974;-81
2024/01/06 08:11:09;;;;;;;;;;;;;;;9.39;84.06;96856.28;4349230;33;19975;-81
2024/01/06 08:13:36;;;;;;;;;;;;;;;10.49;77.82;96849.78;4349330;33;19979;-81
2024/01/06 08:16:02;;;;;;;;;;;;;;;9.38;83.25;96849.50;4348725;33;20018;-80
2024/01/06 08:18:29;;;;;;;;;;;;;;;10.42;78.95;96851.94;4349297;33;20490;-80
2024/01/06 08:20:56;;;;;;;;;;;;;;;9.67;82.07;96846.97;4349089;33;19994;-81
2024/01/06 08:23:23;;;;;;;;;;;;;;;9.66;82.82;96851.28;4348863;33;19982;-81
2024/01/06 08:25:49;;;;;;;;;;;;;;;9.35;85.93;96846.25;4348746;33;19967;-81
2024/01/06 08:28:18;;;;;;;;;;;;;;;9.84;83.66;96849.41;4349072;33;20030;-81
2024/01/06 08:30:45;;;;;;;;;;;;;;;10.77;79.74;96866.16;4347564;33;19990;-81
2024/01/06 08:33:12;;;;;;;;;;;;;;;10.22;79.89;96869.53;4348980;33;19994;-81
2024/01/06 08:35:40;;;;;;;;;;;;;;;10.85;78.44;96857.03;4349173;33;19974;-81
2024/01/06 08:38:07;;;;;;;;;;;;;;;9.35;87.06;96856.53;4351450;32;19986;-81
2024/01/06 08:40:34;;;;;;;;;;;;;;;8.70;91.52;96864.41;4351263;33;19983;-81
2024/01/06 08:43:01;;;;;;;;;;;;;;;8.83;93.44;96850.00;4350896;33;19993;-80
2024/01/06 08:45:28;;;;;;;;;;;;;;;8.40;96.06;96847.16;4351085;33;19979;-81
2024/01/06 08:47:55;;;;;;;;;;;;;;;8.07;100.00;96849.72;4351190;33;20014;-80
2024/01/06 08:50:22;;;;;;;;;;;;;;;8.43;98.06;96853.06;4350830;33;19975;-80
2024/01/06 08:52:49;;;;;;;;;;;;;;;8.33;99.40;96857.81;4351255;33;20003;-80
2024/01/06 08:55:16;;;;;;;;;;;;;;;8.29;99.76;96864.00;4351120;33;20022;-80
2024/01/06 08:57:43;;;;;;;;;;;;;;;7.70;100.00;96866.19;4350611;33;19963;-80
2024/01/06 09:00:10;;;;;;;;;;;;;;;8.81;99.70;96861.25;4351024;33;20313;-81
2024/01/06 09:02:38;;;;;;;;;;;;;;;9.17;95.58;96861.00;4351104;33;20047;-81
2024/01/06 09:05:05;;;;;;;;;;;;;;;8.34;100.00;96865.47;4350544;33;19974;-80
2024/01/06 09:07:31;;;;;;;;;;;;;;;8.70;99.34;96859.28;4351065;32;19990;-80
2024/01/06 09:09:59;;;;;;;;;;;;;;;8.68;99.24;96856.78;4350860;33;19974;-81
2024/01/06 09:12:26;;;;;;;;;;;;;;;8.28;100.00;96855.47;4350701;33;19987;-80
2024/01/06 09:14:52;;;;;;;;;;;;;;;7.67;100.00;96856.06;4350986;33;19975;-81
2024/01/06 09:17:19;;;;;;;;;;;;;;;8.05;100.00;96868.69;4350799;33;19967;-80
2024/01/06 09:19:47;;;;;;;;;;;;;;;7.72;100.00;96868.66;4350637;33;20023;-80
2024/01/06 09:22:14;;;;;;;;;;;;;;;8.77;100.00;96876.03;4350924;33;20300;-80
2024/01/06 09:24:41;;;;;;;;;;;;;;;9.96;93.05;96874.44;4350609;33;19979;-81
2024/01/06 09:27:08;;;;;;;;;;;;;;;10.07;90.71;96872.06;4350616;33;20303;-80
2024/01/06 09:29:34;;;;;;;;;;;;;;;9.57;93.78;96881.00;4350857;33;20073;-80
2024/01/06 09:32:02;;;;;;;;;;;;;;;10.00;93.43;96865.62;4350609;33;19993;-80
2024/01/06 09:34:28;;;;;;;;;;;;;;;9.80;91.32;96871.94;4350783;33;19989;-80
2024/01/06 09:36:55;;;;;;;;;;;;;;;10.20;90.69;96872.16;4350487;33;19967;-80
2024/01/06 09:39:22;;;;;;;;;;;;;;;9.22;95.97;96857.22;4350638;33;20001;-80
2024/01/06 09:41:49;;;;;;;;;;;;;;;8.51;100.00;96838.06;4350899;33;20056;-80
2024/01/06 09:44:15;;;;;;;;;;;;;;;8.65;100.00;96838.13;4350892;33;19978;-80
2024/01/06 09:46:43;;;;;;;;;;;;;;;8.19;100.00;96824.28;4336693;33;19967;-80
2024/01/06 09:49:10;;;;;;;;;;;;;;;7.78;100.00;96812.69;4350909;33;20324;-80
2024/01/06 09:51:37;;;;;;;;;;;;;;;7.45;100.00;96811.84;4350831;33;20330;-80
2024/01/06 09:54:07;;;;;;;;;;;;;;;7.12;100.00;96815.13;4337027;33;20057;-80
2024/01/06 09:56:34;;;;;;;;;;;;;;;7.97;100.00;96820.25;4337400;33;19975;-81
2024/01/06 09:59:01;;;;;;;;;;;;;;;8.01;100.00;96818.38;4350730;33;19982;-80
2024/01/06 10:01:28;;;;;;;;;;;;;;;7.88;100.00;96822.50;4337170;33;20254;-80
2024/01/06 10:03:54;;;;;;;;;;;;;;;8.32;100.00;96825.31;4350712;33;19975;-80
2024/01/06 10:06:21;;;;;;;;;;;;;;;8.64;100.00;96839.06;4350473;33;19971;-80
2024/01/06 10:08:52;;;;;;;;;;;;;;;8.17;100.00;96833.81;4350314;33;19979;-80
2024/01/06 10:11:20;;;;;;;;;;;;;;;9.16;100.00;96843.91;4350654;33;19983;-80
2024/01/06 10:13:50;;;;;;;;;;;;;;;9.24;100.00;96836.56;4350308;33;19986;-81
2024/01/06 10:16:18;;;;;;;;;;;;;;;9.86;97.94;96843.22;4350565;33;20311;-81
2024/01/06 10:18:45;;;;;;;;;;;;;;;9.60;97.77;96840.53;4350679;33;20038;-80
2024/01/06 10:21:19;;;;;;;;;;;;;;;9.08;100.00;96839.19;4350386;33;20037;-80
2024/01/06 10:23:47;;;;;;;;;;;;;;;9.49;99.75;96836.00;4337382;33;20050;-81
2024/01/06 10:26:14;;;;;;;;;;;;;;;9.44;98.50;96830.28;4343726;33;20326;-80
2024/01/06 10:28:41;;;;;;;;;;;;;;;9.34;98.51;96824.00;4350292;33;19983;-81
2024/01/06 10:31:08;;;;;;;;;;;;;;;9.19;100.00;96817.97;4350587;33;19983;-81
2024/01/06 10:33:35;;;;;;;;;;;;;;;8.37;100.00;96816.47;4350428;33;20065;-81
2024/01/06 10:36:03;;;;;;;;;;;;;;;8.09;100.00;96813.69;4348772;33;20314;-81
2024/01/06 10:38:29;;;;;;;;;;;;;;;8.76;100.00;96810.09;4350505;33;20010;-81
2024/01/06 10:40:59;;;;;;;;;;;;;;;8.41;100.00;96806.87;4350478;33;20283;-81
2024/01/06 10:43:28;;;;;;;;;;;;;;;7.91;100.00;96800.06;4350138;33;20005;-80
2024/01/06 10:45:57;;;;;;;;;;;;;;;7.95;100.00;96798.16;4350280;33;19971;-80
2024/01/06 10:48:25;;;;;;;;;;;;;;;7.96;100.00;96787.78;4350220;33;19975;-80
2024/01/06 10:50:53;;;;;;;;;;;;;;;7.54;100.00;96783.94;4348935;33;20041;-81
2024/01/06 10:53:20;;;;;;;;;;;;;;;8.02;100.00;96784.91;4350363;33;20349;-80
2024/01/06 10:55:47;;;;;;;;;;;;;;;7.59;100.00;96772.62;4349821;33;19978;-81
2024/01/06 10:58:16;;;;;;;;;;;;;;;7.18;100.00;96771.25;4349302;32;19992;-80
2024/01/06 11:00:42;;;;;;;;;;;;;;;7.35;100.00;96757.59;4349134;33;19987;-80
2024/01/06 11:03:09;;;;;;;;;;;;;;;7.62;100.00;96765.59;4349960;33;20034;-81
2024/01/06 11:05:36;;;;;;;;;;;;;;;7.53;100.00;96769.47;4350186;33;19997;-80
2024/01/06 11:08:03;;;;;;;;;;;;;;;7.51;100.00;96765.31;4350065;33;19971;-80
2024/01/06 11:10:30;;;;;;;;;;;;;;;8.19;100.00;96768.63;4349964;33;20049;-80
2024/01/06 11:13:13;;;;;;;;;;;;;;;8.84;100.00;96758.25;4350134;33;20422;-81
2024/01/06 11:15:52;;;;;;;;;;;;;;;8.76;100.00;96762.97;4349938;33;19962;-80
2024/01/06 11:18:35;;;;;;;;;;;;;;;8.46;100.00;96758.59;4348401;33;19986;-81
2024/01/06 11:21:14;;;;;;;;;;;;;;;8.44;100.00;96759.59;4350163;33;20058;-81
2024/01/06 11:23:41;;;;;;;;;;;;;;;8.42;100.00;96756.31;4350013;33;20006;-81
2024/01/06 11:26:08;;;;;;;;;;;;;;;9.12;100.00;96757.47;4349347;33;19983;-80
2024/01/06 11:28:47;;;;;;;;;;;;;;;8.66;100.00;96754.94;4348680;33;20054;-80
2024/01/06 11:31:14;;;;;;;;;;;;;;;8.58;100.00;96759.66;4349580;33;20001;-80
2024/01/06 11:33:41;;;;;;;;;;;;;;;9.11;100.00;96750.69;4349897;33;19975;-80
2024/01/06 11:36:09;;;;;;;;;;;;;;;8.48;100.00;96741.34;4349590;33;19966;-80
2024/01/06 11:38:39;;;;;;;;;;;;;;;8.38;100.00;96737.63;4349271;33;19971;-81
2024/01/06 11:41:06;;;;;;;;;;;;;;;9.09;100.00;96737.91;4349892;33;20026;-80
2024/01/06 11:43:37;;;;;;;;;;;;;;;8.85;100.00;96735.00;4349767;32;20014;-81
2024/01/06 11:46:03;;;;;;;;;;;;;;;9.18;100.00;96731.41;4348018;33;19978;-80
2024/01/06 11:48:31;;;;;;;;;;;;;;;9.72;100.00;96752.25;4348494;33;20006;-81
2024/01/06 11:50:58;;;;;;;;;;;;;;;9.15;100.00;96744.47;4348538;33;20005;-81
2024/01/06 11:53:28;;;;;;;;;;;;;;;7.95;100.00;96715.97;4349321;33;19974;-81
2024/01/06 11:55:55;;;;;;;;;;;;;;;7.99;100.00;96708.03;4349302;33;20286;-80
2024/01/06 11:58:21;;;;;;;;;;;;;;;8.82;100.00;96721.47;4349418;33;19979;-80
2024/01/06 12:00:57;;;;;;;;;;;;;;;8.42;100.00;96722.87;4349138;33;19993;-81
2024/01/06 12:03:26;;;;;;;;;;;;;;;7.96;100.00;96722.75;4349382;33;19974;-80
2024/01/06 12:06:02;;;;;;;;;;;;;;;8.68;100.00;96707.66;4348879;33;19969;-80
2024/01/06 12:08:29;;;;;;;;;;;;;;;8.69;100.00;96698.19;4349391;33;20039;-81
2024/01/06 12:11:03;;;;;;;;;;;;;;;8.66;100.00;96713.78;4350034;33;20044;-80
2024/01/06 12:13:30;;;;;;;;;;;;;;;8.41;100.00;96727.19;4351067;33;19983;-80
2024/01/06 12:15:56;;;;;;;;;;;;;;;9.30;100.00;96728.12;4351213;33;20022;-80
2024/01/06 12:18:24;;;;;;;;;;;;;;;8.98;100.00;96741.09;4350231;33;19998;-80
2024/01/06 12:20:51;;;;;;;;;;;;;;;8.76;100.00;96732.94;4349860;33;20005;-80
2024/01/06 12:23:27;;;;;;;;;;;;;;;7.88;100.00;96725.75;4351420;33;19984;-80
2024/01/06 12:25:55;;;;;;;;;;;;;;;8.58;100.00;96732.22;4349926;33;19977;-80
2024/01/06 12:28:22;;;;;;;;;;;;;;;8.73;100.00;96751.12;4350774;33;19975;-80
2024/01/06 12:30:48;;;;;;;;;;;;;;;9.59;100.00;96754.72;4351349;33;20013;-81
2024/01/06 12:33:15;;;;;;;;;;;;;;;9.91;100.00;96744.25;4351318;32;20014;-80
2024/01/06 12:35:42;;;;;;;;;;;;;;;10.06;96.99;96741.53;4349661;33;19982;-80
2024/01/06 12:38:09;;;;;;;;;;;;;;;10.26;93.95;96742.94;4351253;33;19991;-80
2024/01/06 12:40:36;;;;;;;;;;;;;;;9.66;97.35;96737.97;4351160;33;19979;-80
2024/01/06 12:43:06;;;;;;;;;;;;;;;9.58;98.72;96745.34;4350827;33;20025;-80
2024/01/06 12:45:33;;;;;;;;;;;;;;;9.29;100.00;96744.47;4351063;33;19981;-80
2024/01/06 12:48:00;;;;;;;;;;;;;;;10.50;95.32;96748.28;4349800;33;20001;-81
2024/01/06 12:50:27;;;;;;;;;;;;;;;10.95;92.10;96743.69;4351178;33;19998;-81